sensor_id;sensor_type;location;lat;lon;timestamp;pressure;altitude;pressure_sealevel;temperature;humidity
72308;BME280;60257;42.638;23.376;2022-07-17T00:01:31;94961.81;;;22.52;52.57
72308;BME280;60257;42.638;23.376;2022-07-17T00:03:56;94969.09;;;22.42;52.70
72308;BME280;60257;42.638;23.376;2022-07-17T00:06:22;94970.69;;;22.43;52.90
72308;BME280;60257;42.638;23.376;2022-07-17T00:08:47;94970.19;;;22.48;52.64
72308;BME280;60257;42.638;23.376;2022-07-17T00:11:13;94970.44;;;22.30;53.15
72308;BME280;60257;42.638;23.376;2022-07-17T00:13:38;94979.50;;;22.38;52.73
72308;BME280;60257;42.638;23.376;2022-07-17T00:16:04;94981.06;;;22.39;52.73
72308;BME280;60257;42.638;23.376;2022-07-17T00:18:29;94975.78;;;22.18;53.31
72308;BME280;60257;42.638;23.376;2022-07-17T00:20:55;94978.81;;;21.96;53.81
72308;BME280;60257;42.638;23.376;2022-07-17T00:23:20;94985.84;;;22.04;53.61
72308;BME280;60257;42.638;23.376;2022-07-17T00:25:46;94987.56;;;21.95;54.05
72308;BME280;60257;42.638;23.376;2022-07-17T00:28:12;94997.81;;;22.01;53.71
72308;BME280;60257;42.638;23.376;2022-07-17T00:30:37;94994.34;;;21.94;53.93
72308;BME280;60257;42.638;23.376;2022-07-17T00:33:03;94985.97;;;21.97;53.81
72308;BME280;60257;42.638;23.376;2022-07-17T00:35:30;94985.50;;;22.02;53.82
72308;BME280;60257;42.638;23.376;2022-07-17T00:37:55;94985.56;;;21.95;53.92
72308;BME280;60257;42.638;23.376;2022-07-17T00:40:23;94981.81;;;22.09;53.58
72308;BME280;60257;42.638;23.376;2022-07-17T00:42:50;94987.53;;;21.98;53.80
72308;BME280;60257;42.638;23.376;2022-07-17T00:45:16;94988.41;;;21.88;53.71
72308;BME280;60257;42.638;23.376;2022-07-17T00:47:54;94990.22;;;22.06;53.21
72308;BME280;60257;42.638;23.376;2022-07-17T00:50:27;94987.56;;;21.91;53.59
72308;BME280;60257;42.638;23.376;2022-07-17T00:52:53;94989.56;;;21.94;53.65
72308;BME280;60257;42.638;23.376;2022-07-17T00:55:19;94986.38;;;21.96;53.58
72308;BME280;60257;42.638;23.376;2022-07-17T00:57:48;94988.78;;;21.94;53.24
72308;BME280;60257;42.638;23.376;2022-07-17T01:00:17;94986.44;;;21.85;53.67
72308;BME280;60257;42.638;23.376;2022-07-17T01:02:48;94995.19;;;21.87;53.57
72308;BME280;60257;42.638;23.376;2022-07-17T01:05:14;95001.09;;;21.89;53.73
72308;BME280;60257;42.638;23.376;2022-07-17T01:07:41;95002.50;;;21.71;53.95
72308;BME280;60257;42.638;23.376;2022-07-17T01:10:08;95003.88;;;21.89;53.64
72308;BME280;60257;42.638;23.376;2022-07-17T01:12:34;95013.38;;;21.95;53.12
72308;BME280;60257;42.638;23.376;2022-07-17T01:14:59;95011.41;;;21.96;53.13
72308;BME280;60257;42.638;23.376;2022-07-17T01:17:26;95009.94;;;21.84;53.46
72308;BME280;60257;42.638;23.376;2022-07-17T01:19:52;95009.28;;;21.70;54.04
72308;BME280;60257;42.638;23.376;2022-07-17T01:22:18;95012.38;;;21.79;53.52
72308;BME280;60257;42.638;23.376;2022-07-17T01:24:44;95010.50;;;21.65;53.90
72308;BME280;60257;42.638;23.376;2022-07-17T01:27:09;95010.16;;;21.59;53.95
72308;BME280;60257;42.638;23.376;2022-07-17T01:29:39;95003.78;;;21.63;53.69
72308;BME280;60257;42.638;23.376;2022-07-17T01:32:05;95011.13;;;21.83;53.43
72308;BME280;60257;42.638;23.376;2022-07-17T01:34:31;95001.19;;;21.82;53.74
72308;BME280;60257;42.638;23.376;2022-07-17T01:36:57;94992.91;;;21.75;53.94
72308;BME280;60257;42.638;23.376;2022-07-17T01:39:23;94997.53;;;21.51;54.55
72308;BME280;60257;42.638;23.376;2022-07-17T01:42:09;94997.72;;;21.30;54.71
72308;BME280;60257;42.638;23.376;2022-07-17T01:44:35;94994.16;;;21.30;54.68
72308;BME280;60257;42.638;23.376;2022-07-17T01:47:00;94991.94;;;21.55;54.46
72308;BME280;60257;42.638;23.376;2022-07-17T01:49:26;95001.63;;;21.40;54.64
72308;BME280;60257;42.638;23.376;2022-07-17T01:51:51;95009.28;;;21.22;54.97
72308;BME280;60257;42.638;23.376;2022-07-17T01:54:17;95006.41;;;21.36;54.34
72308;BME280;60257;42.638;23.376;2022-07-17T01:56:42;94998.50;;;21.34;54.38
72308;BME280;60257;42.638;23.376;2022-07-17T01:59:08;94996.88;;;21.37;54.27
72308;BME280;60257;42.638;23.376;2022-07-17T02:01:34;95006.47;;;21.29;56.76
72308;BME280;60257;42.638;23.376;2022-07-17T02:03:59;95007.78;;;21.13;57.34
72308;BME280;60257;42.638;23.376;2022-07-17T02:06:25;95011.50;;;20.89;58.99
72308;BME280;60257;42.638;23.376;2022-07-17T02:08:50;95007.72;;;20.62;61.69
72308;BME280;60257;42.638;23.376;2022-07-17T02:11:17;95008.63;;;20.41;63.21
72308;BME280;60257;42.638;23.376;2022-07-17T02:13:42;95012.84;;;20.63;62.48
72308;BME280;60257;42.638;23.376;2022-07-17T02:16:08;95006.56;;;20.56;62.10
72308;BME280;60257;42.638;23.376;2022-07-17T02:18:33;95007.00;;;20.51;61.19
72308;BME280;60257;42.638;23.376;2022-07-17T02:20:58;95008.66;;;20.30;60.99
72308;BME280;60257;42.638;23.376;2022-07-17T02:23:24;95010.59;;;20.41;60.40
72308;BME280;60257;42.638;23.376;2022-07-17T02:25:49;95009.41;;;20.38;60.17
72308;BME280;60257;42.638;23.376;2022-07-17T02:28:15;95003.44;;;20.43;59.50
72308;BME280;60257;42.638;23.376;2022-07-17T02:30:40;95002.66;;;20.46;59.37
72308;BME280;60257;42.638;23.376;2022-07-17T02:33:06;95006.22;;;20.43;59.58
72308;BME280;60257;42.638;23.376;2022-07-17T02:35:32;95006.13;;;20.61;58.27
72308;BME280;60257;42.638;23.376;2022-07-17T02:37:58;95010.56;;;20.48;59.22
72308;BME280;60257;42.638;23.376;2022-07-17T02:40:24;95011.41;;;20.34;59.07
72308;BME280;60257;42.638;23.376;2022-07-17T02:42:49;95013.72;;;20.50;58.26
72308;BME280;60257;42.638;23.376;2022-07-17T02:45:15;95012.25;;;20.31;59.21
72308;BME280;60257;42.638;23.376;2022-07-17T02:47:41;95012.63;;;20.37;59.58
72308;BME280;60257;42.638;23.376;2022-07-17T02:50:08;95014.19;;;20.38;59.10
72308;BME280;60257;42.638;23.376;2022-07-17T02:52:34;95020.47;;;20.49;59.96
72308;BME280;60257;42.638;23.376;2022-07-17T02:55:00;95023.53;;;20.72;59.61
72308;BME280;60257;42.638;23.376;2022-07-17T02:57:25;95024.38;;;20.58;59.42
72308;BME280;60257;42.638;23.376;2022-07-17T02:59:51;95029.97;;;20.48;58.74
72308;BME280;60257;42.638;23.376;2022-07-17T03:02:16;95024.47;;;20.41;59.32
72308;BME280;60257;42.638;23.376;2022-07-17T03:04:42;95032.91;;;20.05;59.63
72308;BME280;60257;42.638;23.376;2022-07-17T03:07:07;95035.69;;;20.05;61.13
72308;BME280;60257;42.638;23.376;2022-07-17T03:09:33;95032.03;;;20.26;59.93
72308;BME280;60257;42.638;23.376;2022-07-17T03:11:58;95032.03;;;20.26;59.61
72308;BME280;60257;42.638;23.376;2022-07-17T03:14:24;95043.59;;;20.10;59.81
72308;BME280;60257;42.638;23.376;2022-07-17T03:16:50;95041.63;;;20.04;59.53
72308;BME280;60257;42.638;23.376;2022-07-17T03:19:15;95049.19;;;20.03;58.94
72308;BME280;60257;42.638;23.376;2022-07-17T03:21:41;95045.97;;;20.12;58.40
72308;BME280;60257;42.638;23.376;2022-07-17T03:24:06;95054.59;;;20.46;57.28
72308;BME280;60257;42.638;23.376;2022-07-17T03:26:32;95051.44;;;20.33;58.03
72308;BME280;60257;42.638;23.376;2022-07-17T03:28:58;95055.03;;;20.26;57.74
72308;BME280;60257;42.638;23.376;2022-07-17T03:31:23;95057.00;;;20.26;58.42
72308;BME280;60257;42.638;23.376;2022-07-17T03:33:48;95056.97;;;20.44;58.72
72308;BME280;60257;42.638;23.376;2022-07-17T03:36:14;95055.81;;;20.34;59.35
72308;BME280;60257;42.638;23.376;2022-07-17T03:38:39;95066.53;;;20.21;59.47
72308;BME280;60257;42.638;23.376;2022-07-17T03:41:05;95060.59;;;20.23;59.44
72308;BME280;60257;42.638;23.376;2022-07-17T03:43:30;95064.56;;;20.18;59.14
72308;BME280;60257;42.638;23.376;2022-07-17T03:45:56;95071.69;;;20.26;58.63
72308;BME280;60257;42.638;23.376;2022-07-17T03:48:21;95068.53;;;20.21;58.53
72308;BME280;60257;42.638;23.376;2022-07-17T03:50:47;95076.09;;;20.13;58.50
72308;BME280;60257;42.638;23.376;2022-07-17T03:53:12;95067.41;;;19.97;59.15
72308;BME280;60257;42.638;23.376;2022-07-17T03:55:38;95074.13;;;20.03;58.14
72308;BME280;60257;42.638;23.376;2022-07-17T03:58:03;95078.03;;;20.27;57.21
72308;BME280;60257;42.638;23.376;2022-07-17T04:00:28;95084.31;;;20.52;56.65
72308;BME280;60257;42.638;23.376;2022-07-17T04:02:54;95094.25;;;20.46;55.61
72308;BME280;60257;42.638;23.376;2022-07-17T04:05:20;95097.44;;;20.34;55.11
72308;BME280;60257;42.638;23.376;2022-07-17T04:07:45;95097.03;;;20.28;54.12
72308;BME280;60257;42.638;23.376;2022-07-17T04:10:13;95099.41;;;20.33;54.63
72308;BME280;60257;42.638;23.376;2022-07-17T04:12:39;95102.19;;;20.30;53.28
72308;BME280;60257;42.638;23.376;2022-07-17T04:15:05;95096.97;;;20.53;52.89
72308;BME280;60257;42.638;23.376;2022-07-17T04:17:31;95101.28;;;20.72;52.46
72308;BME280;60257;42.638;23.376;2022-07-17T04:19:57;95105.56;;;20.84;51.94
72308;BME280;60257;42.638;23.376;2022-07-17T04:22:23;95111.41;;;21.03;50.75
72308;BME280;60257;42.638;23.376;2022-07-17T04:24:49;95109.81;;;21.02;49.72
72308;BME280;60257;42.638;23.376;2022-07-17T04:27:15;95108.97;;;21.12;49.44
72308;BME280;60257;42.638;23.376;2022-07-17T04:29:41;95108.97;;;21.20;49.59
72308;BME280;60257;42.638;23.376;2022-07-17T04:32:07;95118.78;;;21.35;48.77
72308;BME280;60257;42.638;23.376;2022-07-17T04:34:33;95111.94;;;21.50;48.51
72308;BME280;60257;42.638;23.376;2022-07-17T04:36:59;95118.56;;;21.63;48.22
72308;BME280;60257;42.638;23.376;2022-07-17T04:39:25;95115.03;;;21.55;48.57
72308;BME280;60257;42.638;23.376;2022-07-17T04:41:51;95122.97;;;21.57;48.86
72308;BME280;60257;42.638;23.376;2022-07-17T04:44:17;95127.50;;;21.85;47.55
72308;BME280;60257;42.638;23.376;2022-07-17T04:46:43;95125.09;;;21.94;46.40
72308;BME280;60257;42.638;23.376;2022-07-17T04:49:08;95129.69;;;22.11;46.39
72308;BME280;60257;42.638;23.376;2022-07-17T04:51:34;95126.88;;;22.52;45.05
72308;BME280;60257;42.638;23.376;2022-07-17T04:53:59;95125.63;;;22.19;44.97
72308;BME280;60257;42.638;23.376;2022-07-17T04:56:25;95131.44;;;22.35;45.36
72308;BME280;60257;42.638;23.376;2022-07-17T04:58:50;95132.16;;;22.43;45.52
72308;BME280;60257;42.638;23.376;2022-07-17T05:01:16;95142.56;;;22.73;44.58
72308;BME280;60257;42.638;23.376;2022-07-17T05:03:42;95141.56;;;22.56;44.86
72308;BME280;60257;42.638;23.376;2022-07-17T05:06:08;95148.56;;;22.71;44.31
72308;BME280;60257;42.638;23.376;2022-07-17T05:08:35;95144.03;;;22.84;43.15
72308;BME280;60257;42.638;23.376;2022-07-17T05:11:00;95152.91;;;22.76;44.12
72308;BME280;60257;42.638;23.376;2022-07-17T05:13:26;95154.88;;;23.09;43.25
72308;BME280;60257;42.638;23.376;2022-07-17T05:15:51;95156.38;;;22.83;43.98
72308;BME280;60257;42.638;23.376;2022-07-17T05:18:17;95154.78;;;22.82;43.14
72308;BME280;60257;42.638;23.376;2022-07-17T05:20:42;95151.88;;;22.93;43.06
72308;BME280;60257;42.638;23.376;2022-07-17T05:23:08;95155.28;;;22.74;42.08
72308;BME280;60257;42.638;23.376;2022-07-17T05:25:33;95156.91;;;23.05;41.65
72308;BME280;60257;42.638;23.376;2022-07-17T05:27:59;95145.66;;;22.82;42.09
72308;BME280;60257;42.638;23.376;2022-07-17T05:30:24;95157.75;;;22.65;42.64
72308;BME280;60257;42.638;23.376;2022-07-17T05:32:50;95151.88;;;22.93;41.63
72308;BME280;60257;42.638;23.376;2022-07-17T05:35:16;95157.91;;;22.88;42.63
72308;BME280;60257;42.638;23.376;2022-07-17T05:37:41;95158.88;;;22.74;43.02
72308;BME280;60257;42.638;23.376;2022-07-17T05:40:07;95156.75;;;22.85;42.45
72308;BME280;60257;42.638;23.376;2022-07-17T05:42:33;95159.13;;;22.87;41.96
72308;BME280;60257;42.638;23.376;2022-07-17T05:44:58;95162.22;;;22.93;41.27
72308;BME280;60257;42.638;23.376;2022-07-17T05:47:24;95156.53;;;23.03;41.81
72308;BME280;60257;42.638;23.376;2022-07-17T05:49:50;95156.84;;;23.39;41.43
72308;BME280;60257;42.638;23.376;2022-07-17T05:52:16;95163.50;;;23.18;41.27
72308;BME280;60257;42.638;23.376;2022-07-17T05:54:42;95160.09;;;23.04;42.47
72308;BME280;60257;42.638;23.376;2022-07-17T05:57:07;95163.75;;;23.27;41.63
72308;BME280;60257;42.638;23.376;2022-07-17T05:59:33;95153.88;;;23.53;40.69
72308;BME280;60257;42.638;23.376;2022-07-17T06:01:59;95158.00;;;23.45;40.58
72308;BME280;60257;42.638;23.376;2022-07-17T06:04:25;95157.19;;;23.45;40.51
72308;BME280;60257;42.638;23.376;2022-07-17T06:06:50;95163.13;;;23.47;40.52
72308;BME280;60257;42.638;23.376;2022-07-17T06:09:16;95164.78;;;23.41;40.86
72308;BME280;60257;42.638;23.376;2022-07-17T06:11:41;95153.25;;;23.69;39.32
72308;BME280;60257;42.638;23.376;2022-07-17T06:14:07;95167.09;;;23.49;39.79
72308;BME280;60257;42.638;23.376;2022-07-17T06:16:32;95170.38;;;23.41;40.45
72308;BME280;60257;42.638;23.376;2022-07-17T06:18:58;95176.72;;;23.45;40.88
72308;BME280;60257;42.638;23.376;2022-07-17T06:21:23;95165.13;;;23.46;41.37
72308;BME280;60257;42.638;23.376;2022-07-17T06:23:49;95176.72;;;23.45;40.14
72308;BME280;60257;42.638;23.376;2022-07-17T06:26:14;95168.66;;;23.50;39.71
72308;BME280;60257;42.638;23.376;2022-07-17T06:28:40;95177.50;;;23.45;40.15
72308;BME280;60257;42.638;23.376;2022-07-17T06:31:06;95167.53;;;23.71;40.91
72308;BME280;60257;42.638;23.376;2022-07-17T06:33:31;95172.97;;;23.82;40.61
72308;BME280;60257;42.638;23.376;2022-07-17T06:35:57;95168.00;;;24.16;39.57
72308;BME280;60257;42.638;23.376;2022-07-17T06:38:22;95177.94;;;24.21;37.87
72308;BME280;60257;42.638;23.376;2022-07-17T06:40:48;95173.25;;;24.14;38.91
72308;BME280;60257;42.638;23.376;2022-07-17T06:43:13;95173.66;;;24.12;38.08
72308;BME280;60257;42.638;23.376;2022-07-17T06:45:39;95174.72;;;24.22;37.04
72308;BME280;60257;42.638;23.376;2022-07-17T06:48:04;95175.91;;;23.98;37.87
72308;BME280;60257;42.638;23.376;2022-07-17T06:50:30;95171.09;;;23.98;38.04
72308;BME280;60257;42.638;23.376;2022-07-17T06:52:55;95173.75;;;23.82;38.48
72308;BME280;60257;42.638;23.376;2022-07-17T06:55:23;95175.88;;;23.74;38.75
72308;BME280;60257;42.638;23.376;2022-07-17T06:57:49;95176.84;;;23.88;39.15
72308;BME280;60257;42.638;23.376;2022-07-17T07:00:14;95184.59;;;24.03;38.30
72308;BME280;60257;42.638;23.376;2022-07-17T07:02:40;95178.28;;;23.99;38.25
72308;BME280;60257;42.638;23.376;2022-07-17T07:05:06;95180.84;;;24.13;38.50
72308;BME280;60257;42.638;23.376;2022-07-17T07:07:31;95178.13;;;24.33;39.54
72308;BME280;60257;42.638;23.376;2022-07-17T07:09:57;95189.72;;;24.75;36.99
72308;BME280;60257;42.638;23.376;2022-07-17T07:12:22;95185.53;;;24.43;38.07
72308;BME280;60257;42.638;23.376;2022-07-17T07:14:47;95185.34;;;24.31;38.91
72308;BME280;60257;42.638;23.376;2022-07-17T07:17:13;95187.56;;;24.39;38.22
72308;BME280;60257;42.638;23.376;2022-07-17T07:19:38;95186.50;;;24.33;38.84
72308;BME280;60257;42.638;23.376;2022-07-17T07:22:04;95189.47;;;24.46;37.86
72308;BME280;60257;42.638;23.376;2022-07-17T07:24:29;95187.06;;;24.68;38.00
72308;BME280;60257;42.638;23.376;2022-07-17T07:26:55;95186.06;;;24.58;38.08
72308;BME280;60257;42.638;23.376;2022-07-17T07:29:20;95191.84;;;24.47;38.15
72308;BME280;60257;42.638;23.376;2022-07-17T07:31:46;95189.03;;;24.47;38.20
72308;BME280;60257;42.638;23.376;2022-07-17T07:34:13;95191.75;;;24.51;37.71
72308;BME280;60257;42.638;23.376;2022-07-17T07:36:38;95200.78;;;24.58;38.87
72308;BME280;60257;42.638;23.376;2022-07-17T07:39:04;95193.78;;;24.50;38.27
72308;BME280;60257;42.638;23.376;2022-07-17T07:41:29;95197.66;;;24.56;39.08
72308;BME280;60257;42.638;23.376;2022-07-17T07:43:54;95194.94;;;24.96;37.50
72308;BME280;60257;42.638;23.376;2022-07-17T07:46:20;95194.28;;;24.88;38.13
72308;BME280;60257;42.638;23.376;2022-07-17T07:48:45;95188.25;;;24.90;39.39
72308;BME280;60257;42.638;23.376;2022-07-17T07:51:11;95187.06;;;24.91;39.45
72308;BME280;60257;42.638;23.376;2022-07-17T07:53:37;95188.34;;;25.26;38.27
72308;BME280;60257;42.638;23.376;2022-07-17T07:56:03;95180.28;;;25.08;37.76
72308;BME280;60257;42.638;23.376;2022-07-17T07:58:29;95186.69;;;25.09;38.49
72308;BME280;60257;42.638;23.376;2022-07-17T08:00:54;95188.84;;;25.01;37.02
72308;BME280;60257;42.638;23.376;2022-07-17T08:03:19;95190.69;;;25.27;36.50
72308;BME280;60257;42.638;23.376;2022-07-17T08:05:45;95192.84;;;25.39;36.21
72308;BME280;60257;42.638;23.376;2022-07-17T08:08:10;95195.47;;;25.27;36.58
72308;BME280;60257;42.638;23.376;2022-07-17T08:10:36;95190.53;;;25.34;36.48
72308;BME280;60257;42.638;23.376;2022-07-17T08:13:02;95193.94;;;25.06;37.55
72308;BME280;60257;42.638;23.376;2022-07-17T08:15:27;95188.91;;;24.97;36.96
72308;BME280;60257;42.638;23.376;2022-07-17T08:17:53;95186.88;;;25.37;35.11
72308;BME280;60257;42.638;23.376;2022-07-17T08:20:20;95190.69;;;25.08;36.49
72308;BME280;60257;42.638;23.376;2022-07-17T08:22:47;95194.97;;;24.92;36.52
72308;BME280;60257;42.638;23.376;2022-07-17T08:25:13;95191.34;;;24.95;36.56
72308;BME280;60257;42.638;23.376;2022-07-17T08:27:40;95200.06;;;25.17;36.68
72308;BME280;60257;42.638;23.376;2022-07-17T08:30:07;95195.53;;;25.43;35.66
72308;BME280;60257;42.638;23.376;2022-07-17T08:32:33;95193.47;;;25.27;37.03
72308;BME280;60257;42.638;23.376;2022-07-17T08:34:59;95193.69;;;25.36;36.19
72308;BME280;60257;42.638;23.376;2022-07-17T08:37:25;95191.44;;;25.48;35.41
72308;BME280;60257;42.638;23.376;2022-07-17T08:39:51;95184.75;;;25.25;35.89
72308;BME280;60257;42.638;23.376;2022-07-17T08:42:17;95189.72;;;25.54;35.43
72308;BME280;60257;42.638;23.376;2022-07-17T08:44:43;95189.34;;;25.52;35.80
72308;BME280;60257;42.638;23.376;2022-07-17T08:47:11;95190.75;;;25.43;36.12
72308;BME280;60257;42.638;23.376;2022-07-17T08:49:43;95191.72;;;25.53;35.76
72308;BME280;60257;42.638;23.376;2022-07-17T08:52:10;95183.84;;;25.68;35.34
72308;BME280;60257;42.638;23.376;2022-07-17T08:54:35;95187.38;;;25.88;35.23
72308;BME280;60257;42.638;23.376;2022-07-17T08:57:02;95183.41;;;25.85;35.18
72308;BME280;60257;42.638;23.376;2022-07-17T08:59:28;95199.44;;;26.01;33.84
72308;BME280;60257;42.638;23.376;2022-07-17T09:01:53;95179.47;;;25.83;34.32
72308;BME280;60257;42.638;23.376;2022-07-17T09:04:18;95179.13;;;25.81;34.75
72308;BME280;60257;42.638;23.376;2022-07-17T09:06:44;95173.78;;;25.86;34.76
72308;BME280;60257;42.638;23.376;2022-07-17T09:09:12;95183.09;;;26.00;34.68
72308;BME280;60257;42.638;23.376;2022-07-17T09:11:49;95169.38;;;26.38;34.50
72308;BME280;60257;42.638;23.376;2022-07-17T09:14:16;95167.94;;;26.62;34.26
72308;BME280;60257;42.638;23.376;2022-07-17T09:16:55;95175.19;;;26.59;34.77
72308;BME280;60257;42.638;23.376;2022-07-17T09:19:26;95170.66;;;26.49;33.58
72308;BME280;60257;42.638;23.376;2022-07-17T09:24:55;95167.63;;;26.27;34.24
72308;BME280;60257;42.638;23.376;2022-07-17T09:29:53;95179.31;;;26.55;33.41
72308;BME280;60257;42.638;23.376;2022-07-17T09:32:20;95175.75;;;26.38;32.95
72308;BME280;60257;42.638;23.376;2022-07-17T09:34:47;95176.19;;;26.37;32.91
72308;BME280;60257;42.638;23.376;2022-07-17T09:37:14;95173.22;;;26.44;32.21
72308;BME280;60257;42.638;23.376;2022-07-17T09:39:40;95179.50;;;26.48;32.98
72308;BME280;60257;42.638;23.376;2022-07-17T09:42:07;95175.66;;;26.58;32.20
72308;BME280;60257;42.638;23.376;2022-07-17T09:44:32;95177.78;;;26.83;31.73
72308;BME280;60257;42.638;23.376;2022-07-17T09:46:58;95172.69;;;26.94;30.73
72308;BME280;60257;42.638;23.376;2022-07-17T09:49:27;95171.25;;;26.73;32.04
72308;BME280;60257;42.638;23.376;2022-07-17T09:51:53;95173.03;;;26.80;31.68
72308;BME280;60257;42.638;23.376;2022-07-17T09:54:21;95183.72;;;26.85;31.21
72308;BME280;60257;42.638;23.376;2022-07-17T09:56:50;95179.00;;;26.82;31.53
72308;BME280;60257;42.638;23.376;2022-07-17T09:59:17;95171.88;;;26.93;31.43
72308;BME280;60257;42.638;23.376;2022-07-17T10:01:44;95168.25;;;27.09;31.29
72308;BME280;60257;42.638;23.376;2022-07-17T10:04:13;95170.06;;;27.15;30.81
72308;BME280;60257;42.638;23.376;2022-07-17T10:06:39;95178.63;;;27.25;30.27
72308;BME280;60257;42.638;23.376;2022-07-17T10:09:05;95171.78;;;27.26;30.43
72308;BME280;60257;42.638;23.376;2022-07-17T10:11:33;95165.09;;;27.07;31.10
72308;BME280;60257;42.638;23.376;2022-07-17T10:14:04;95167.44;;;27.08;31.62
72308;BME280;60257;42.638;23.376;2022-07-17T10:16:32;95163.56;;;27.19;30.88
72308;BME280;60257;42.638;23.376;2022-07-17T10:18:59;95158.53;;;27.39;30.21
72308;BME280;60257;42.638;23.376;2022-07-17T10:21:28;95174.66;;;27.51;30.39
72308;BME280;60257;42.638;23.376;2022-07-17T10:26:32;95173.19;;;27.59;30.20
72308;BME280;60257;42.638;23.376;2022-07-17T10:28:58;95171.75;;;27.54;30.30
72308;BME280;60257;42.638;23.376;2022-07-17T10:31:28;95155.38;;;27.37;29.79
72308;BME280;60257;42.638;23.376;2022-07-17T10:34:00;95164.84;;;27.43;30.65
72308;BME280;60257;42.638;23.376;2022-07-17T10:36:46;95158.78;;;27.44;30.93
72308;BME280;60257;42.638;23.376;2022-07-17T10:39:14;95147.63;;;27.28;31.19
72308;BME280;60257;42.638;23.376;2022-07-17T10:41:40;95154.50;;;27.40;31.22
72308;BME280;60257;42.638;23.376;2022-07-17T10:44:06;95151.41;;;27.63;30.94
72308;BME280;60257;42.638;23.376;2022-07-17T10:46:31;95146.16;;;27.65;30.42
72308;BME280;60257;42.638;23.376;2022-07-17T10:48:57;95145.94;;;27.60;30.32
72308;BME280;60257;42.638;23.376;2022-07-17T10:51:26;95143.34;;;27.65;30.61
72308;BME280;60257;42.638;23.376;2022-07-17T10:53:56;95139.75;;;27.77;29.47
72308;BME280;60257;42.638;23.376;2022-07-17T10:56:24;95144.56;;;27.89;30.53
72308;BME280;60257;42.638;23.376;2022-07-17T10:58:51;95141.44;;;27.75;30.11
72308;BME280;60257;42.638;23.376;2022-07-17T11:01:19;95140.75;;;27.83;30.70
72308;BME280;60257;42.638;23.376;2022-07-17T11:08:54;95130.41;;;27.93;31.08
72308;BME280;60257;42.638;23.376;2022-07-17T11:11:50;95138.41;;;28.20;30.17
72308;BME280;60257;42.638;23.376;2022-07-17T11:14:21;95142.66;;;28.12;29.68
72308;BME280;60257;42.638;23.376;2022-07-17T11:19:40;95120.09;;;27.90;30.97
72308;BME280;60257;42.638;23.376;2022-07-17T11:22:10;95119.19;;;27.93;30.51
72308;BME280;60257;42.638;23.376;2022-07-17T11:24:47;95116.81;;;28.04;30.66
72308;BME280;60257;42.638;23.376;2022-07-17T11:27:22;95113.84;;;28.33;30.78
72308;BME280;60257;42.638;23.376;2022-07-17T11:29:49;95108.22;;;28.67;29.61
72308;BME280;60257;42.638;23.376;2022-07-17T11:32:15;95107.56;;;28.63;29.89
72308;BME280;60257;42.638;23.376;2022-07-17T11:34:41;95114.53;;;28.71;29.57
72308;BME280;60257;42.638;23.376;2022-07-17T11:37:07;95121.03;;;28.68;29.98
72308;BME280;60257;42.638;23.376;2022-07-17T11:39:48;95116.63;;;28.80;28.76
72308;BME280;60257;42.638;23.376;2022-07-17T11:42:16;95116.09;;;28.72;29.38
72308;BME280;60257;42.638;23.376;2022-07-17T11:44:42;95115.66;;;28.96;29.13
72308;BME280;60257;42.638;23.376;2022-07-17T11:47:12;95104.25;;;28.99;29.35
72308;BME280;60257;42.638;23.376;2022-07-17T11:49:44;95101.94;;;28.98;29.26
72308;BME280;60257;42.638;23.376;2022-07-17T11:52:20;95099.41;;;29.00;29.41
72308;BME280;60257;42.638;23.376;2022-07-17T11:54:48;95105.13;;;29.31;28.56
72308;BME280;60257;42.638;23.376;2022-07-17T11:57:14;95093.91;;;29.18;29.32
72308;BME280;60257;42.638;23.376;2022-07-17T11:59:40;95097.31;;;29.13;29.20
72308;BME280;60257;42.638;23.376;2022-07-17T12:02:29;95093.16;;;28.96;29.12
72308;BME280;60257;42.638;23.376;2022-07-17T12:04:58;95091.72;;;28.91;29.87
72308;BME280;60257;42.638;23.376;2022-07-17T12:07:27;95089.72;;;29.22;29.05
72308;BME280;60257;42.638;23.376;2022-07-17T12:10:14;95087.91;;;28.85;30.05
72308;BME280;60257;42.638;23.376;2022-07-17T12:15:43;95088.50;;;28.80;30.03
72308;BME280;60257;42.638;23.376;2022-07-17T12:18:27;95080.97;;;28.99;29.98
72308;BME280;60257;42.638;23.376;2022-07-17T12:20:56;95076.72;;;29.16;29.48
72308;BME280;60257;42.638;23.376;2022-07-17T12:23:55;95082.53;;;29.21;30.00
72308;BME280;60257;42.638;23.376;2022-07-17T12:26:22;95080.25;;;29.60;28.51
72308;BME280;60257;42.638;23.376;2022-07-17T12:28:48;95079.03;;;29.39;29.83
72308;BME280;60257;42.638;23.376;2022-07-17T12:31:13;95078.97;;;29.30;30.02
72308;BME280;60257;42.638;23.376;2022-07-17T12:33:39;95075.28;;;29.42;29.45
72308;BME280;60257;42.638;23.376;2022-07-17T12:36:06;95079.88;;;29.49;29.37
72308;BME280;60257;42.638;23.376;2022-07-17T12:38:31;95074.25;;;29.49;29.59
72308;BME280;60257;42.638;23.376;2022-07-17T12:40:57;95083.03;;;29.51;29.26
72308;BME280;60257;42.638;23.376;2022-07-17T12:43:24;95071.19;;;29.65;29.13
72308;BME280;60257;42.638;23.376;2022-07-17T12:45:50;95076.03;;;29.64;29.20
72308;BME280;60257;42.638;23.376;2022-07-17T12:48:16;95081.25;;;29.84;28.78
72308;BME280;60257;42.638;23.376;2022-07-17T12:50:41;95075.88;;;29.68;29.70
72308;BME280;60257;42.638;23.376;2022-07-17T12:53:07;95072.78;;;29.35;29.97
72308;BME280;60257;42.638;23.376;2022-07-17T12:55:33;95073.94;;;29.47;30.19
72308;BME280;60257;42.638;23.376;2022-07-17T12:57:59;95075.81;;;29.50;30.06
72308;BME280;60257;42.638;23.376;2022-07-17T13:00:24;95075.81;;;29.50;30.39
72308;BME280;60257;42.638;23.376;2022-07-17T13:02:50;95068.88;;;29.82;29.27
72308;BME280;60257;42.638;23.376;2022-07-17T13:05:15;95052.97;;;29.48;30.02
72308;BME280;60257;42.638;23.376;2022-07-17T13:07:41;95064.97;;;29.39;30.55